createdAt,value
2023-05-13T00:00:42.910Z,13.32
2023-05-13T00:03:10.745Z,13.33
2023-05-13T00:05:38.593Z,13.02
2023-05-13T00:08:08.035Z,13.15
2023-05-13T00:10:36.611Z,13.29
2023-05-13T00:13:04.458Z,13.03
2023-05-13T00:15:32.689Z,13.01
2023-05-13T00:18:00.440Z,12.99
2023-05-13T00:20:28.233Z,13.19
2023-05-13T00:22:55.910Z,13.10
2023-05-13T00:25:25.196Z,13.19
2023-05-13T00:27:52.856Z,13.13
2023-05-13T00:30:21.161Z,13.00
2023-05-13T00:32:49.148Z,13.15
2023-05-13T00:35:16.931Z,13.13
2023-05-13T00:37:44.945Z,13.06
2023-05-13T00:40:18.512Z,13.24
2023-05-13T00:42:47.589Z,12.90
2023-05-13T00:45:15.387Z,13.21
2023-05-13T00:47:43.844Z,12.95
2023-05-13T00:50:12.390Z,13.06
2023-05-13T00:52:40.862Z,12.98
2023-05-13T00:55:09.841Z,12.95
2023-05-13T00:57:40.070Z,12.79
2023-05-13T01:00:10.726Z,12.96
2023-05-13T01:02:44.143Z,12.85
2023-05-13T01:05:21.941Z,13.08
2023-05-13T01:07:57.342Z,13.12
2023-05-13T01:10:30.374Z,13.06
2023-05-13T01:13:00.465Z,13.20
2023-05-13T01:15:30.120Z,13.21
2023-05-13T01:18:01.997Z,13.11
2023-05-13T01:20:29.649Z,13.41
2023-05-13T01:22:58.888Z,13.50
2023-05-13T01:25:26.685Z,13.50
2023-05-13T01:27:54.657Z,13.46
2023-05-13T01:30:23.707Z,13.45
2023-05-13T01:32:51.930Z,13.48
2023-05-13T01:35:20.600Z,13.62
2023-05-13T01:37:48.869Z,13.27
2023-05-13T01:40:31.594Z,13.18
2023-05-13T01:43:00.292Z,13.32
2023-05-13T01:45:29.075Z,13.31
2023-05-13T01:47:56.852Z,13.25
2023-05-13T01:50:24.879Z,13.30
2023-05-13T01:52:52.656Z,13.08
2023-05-13T01:55:21.959Z,13.10
2023-05-13T01:57:49.658Z,13.01
2023-05-13T02:00:18.233Z,12.95
2023-05-13T02:02:46.967Z,12.83
2023-05-13T02:05:14.873Z,12.66
2023-05-13T02:07:42.523Z,12.72
2023-05-13T02:10:11.220Z,12.50
2023-05-13T02:12:40.254Z,12.58
2023-05-13T02:15:08.804Z,12.78
2023-05-13T02:17:36.585Z,12.80
2023-05-13T02:20:04.909Z,12.76
2023-05-13T02:22:32.610Z,12.90
2023-05-13T02:25:00.260Z,12.96
2023-05-13T02:27:28.106Z,12.74
2023-05-13T02:29:57.145Z,12.59
2023-05-13T02:32:24.962Z,12.64
2023-05-13T02:34:52.695Z,12.46
2023-05-13T02:37:20.419Z,12.56
2023-05-13T02:39:48.095Z,12.60
2023-05-13T02:42:15.765Z,12.50
2023-05-13T02:44:43.471Z,12.34
2023-05-13T02:47:12.887Z,12.45
2023-05-13T02:49:40.564Z,12.46
2023-05-13T02:52:08.221Z,12.40
2023-05-13T02:54:35.853Z,12.31
2023-05-13T02:57:03.500Z,12.47
2023-05-13T02:59:31.181Z,12.33
2023-05-13T03:01:58.885Z,12.25
2023-05-13T03:04:27.957Z,12.18
2023-05-13T03:06:55.745Z,12.20
2023-05-13T03:09:23.420Z,12.07
2023-05-13T03:11:51.195Z,12.09
2023-05-13T03:14:18.854Z,12.09
2023-05-13T03:16:46.540Z,12.07
2023-05-13T03:19:14.460Z,12.24
2023-05-13T03:21:43.549Z,12.13
2023-05-13T03:24:11.280Z,12.15
2023-05-13T03:26:38.964Z,11.94
2023-05-13T03:29:06.641Z,11.93
2023-05-13T03:31:34.327Z,11.96
2023-05-13T03:34:01.990Z,11.94
2023-05-13T03:36:29.777Z,11.82
2023-05-13T03:38:58.778Z,11.63
2023-05-13T03:41:28.075Z,11.61
2023-05-13T03:43:55.794Z,11.47
2023-05-13T03:46:23.658Z,11.62
2023-05-13T03:48:51.324Z,11.29
2023-05-13T03:51:19.047Z,11.33
2023-05-13T03:53:46.781Z,11.49
2023-05-13T03:56:16.549Z,11.44
2023-05-13T03:58:44.216Z,11.24
2023-05-13T04:01:11.870Z,11.43
2023-05-13T04:03:39.601Z,11.53
2023-05-13T04:06:07.668Z,11.35
2023-05-13T04:08:35.399Z,11.74
2023-05-13T04:11:03.047Z,11.64
2023-05-13T04:13:33.669Z,11.66
2023-05-13T04:16:01.326Z,11.45
2023-05-13T04:18:30.334Z,11.84
2023-05-13T04:20:58.149Z,11.80
2023-05-13T04:23:25.784Z,11.76
2023-05-13T04:25:53.643Z,12.10
2023-05-13T04:28:21.616Z,12.09
2023-05-13T04:30:50.750Z,12.00
2023-05-13T04:33:18.469Z,12.26
2023-05-13T04:35:46.171Z,12.27
2023-05-13T04:38:13.880Z,12.17
2023-05-13T04:40:41.569Z,12.30
2023-05-13T04:43:09.347Z,12.27
2023-05-13T04:45:37.096Z,12.56
2023-05-13T04:48:06.665Z,12.56
2023-05-13T04:50:34.844Z,12.62
2023-05-13T04:53:02.886Z,12.55
2023-05-13T04:55:30.540Z,12.62
2023-05-13T04:57:58.254Z,12.67
2023-05-13T05:00:26.176Z,12.53
2023-05-13T05:02:53.945Z,12.73
2023-05-13T05:05:23.114Z,12.68
2023-05-13T05:07:50.823Z,12.64
2023-05-13T05:10:18.885Z,12.64
2023-05-13T05:12:46.711Z,12.64
2023-05-13T05:15:16.498Z,12.70
2023-05-13T05:17:44.466Z,12.78
2023-05-13T05:20:13.356Z,13.00
2023-05-13T05:22:42.822Z,13.17
2023-05-13T05:25:11.704Z,13.22
2023-05-13T05:27:39.430Z,13.79
2023-05-13T05:30:08.273Z,13.85
2023-05-13T05:32:36.208Z,13.53
2023-05-13T05:35:04.013Z,13.00
2023-05-13T05:37:31.898Z,12.64
2023-05-13T05:40:01.077Z,12.62
2023-05-13T05:42:28.797Z,12.59
2023-05-13T05:44:56.505Z,13.01
2023-05-13T05:47:24.258Z,12.56
2023-05-13T05:49:51.921Z,13.10
2023-05-13T05:52:19.569Z,13.15
2023-05-13T05:54:47.211Z,13.53
2023-05-13T05:57:16.254Z,13.10
2023-05-13T05:59:43.915Z,13.56
2023-05-13T06:02:11.714Z,13.08
2023-05-13T06:04:41.757Z,13.61
2023-05-13T06:07:09.517Z,14.06
2023-05-13T06:09:37.236Z,14.06
2023-05-13T06:12:05.512Z,14.38
2023-05-13T06:14:34.581Z,14.25
2023-05-13T06:17:02.288Z,14.57
2023-05-13T06:19:29.955Z,14.07
2023-05-13T06:21:57.651Z,13.91
2023-05-13T06:24:25.427Z,13.84
2023-05-13T06:26:53.080Z,13.94
2023-05-13T06:29:20.802Z,13.88
2023-05-13T06:31:50.057Z,13.74
2023-05-13T06:34:17.873Z,14.36
2023-05-13T06:36:45.777Z,14.55
2023-05-13T06:39:13.992Z,14.39
2023-05-13T06:41:42.024Z,14.66
2023-05-13T06:44:09.752Z,14.38
2023-05-13T06:46:37.559Z,14.44
2023-05-13T06:49:06.790Z,14.38
2023-05-13T06:51:34.957Z,14.60
2023-05-13T06:54:02.634Z,14.69
2023-05-13T06:56:31.219Z,15.17
2023-05-13T06:58:58.870Z,14.77
2023-05-13T07:01:27.859Z,15.01
2023-05-13T07:03:55.945Z,14.77
2023-05-13T07:06:25.116Z,15.20
2023-05-13T07:08:52.838Z,14.75
2023-05-13T07:11:21.095Z,14.96
2023-05-13T07:13:48.782Z,15.49
2023-05-13T07:16:18.484Z,15.59
2023-05-13T07:18:46.352Z,15.37
2023-05-13T07:21:14.499Z,15.55
2023-05-13T07:23:44.770Z,15.42
2023-05-13T07:26:12.568Z,15.72
2023-05-13T07:28:40.246Z,15.31
2023-05-13T07:31:08.080Z,15.42
2023-05-13T07:33:37.181Z,15.69
2023-05-13T07:36:06.260Z,16.05
2023-05-13T07:38:34.177Z,15.52
2023-05-13T07:41:03.243Z,15.77
2023-05-13T07:43:32.069Z,15.69
2023-05-13T07:45:59.921Z,16.07
2023-05-13T07:48:28.221Z,16.25
2023-05-13T07:50:56.601Z,16.04
2023-05-13T07:53:24.363Z,16.04
2023-05-13T07:55:52.058Z,16.41
2023-05-13T07:58:21.417Z,16.69
2023-05-13T08:00:50.171Z,16.46
2023-05-13T08:03:17.949Z,16.38
2023-05-13T08:05:47.061Z,16.47
2023-05-13T08:08:14.793Z,17.07
2023-05-13T08:10:42.547Z,16.89
2023-05-13T08:13:10.312Z,17.09
2023-05-13T08:15:39.393Z,16.96
2023-05-13T08:18:07.106Z,17.27
2023-05-13T08:20:35.004Z,17.06
2023-05-13T08:23:02.827Z,17.18
2023-05-13T08:25:30.540Z,17.61
2023-05-13T08:27:58.641Z,17.54
2023-05-13T08:30:26.374Z,17.88
2023-05-13T08:32:55.498Z,17.58
2023-05-13T08:35:23.672Z,17.60
2023-05-13T08:37:51.732Z,17.62
2023-05-13T08:40:19.892Z,17.53
2023-05-13T08:42:50.160Z,17.95
2023-05-13T08:45:18.752Z,18.02
2023-05-13T08:47:52.507Z,18.29
2023-05-13T08:50:22.617Z,18.34
2023-05-13T08:52:51.567Z,18.40
2023-05-13T08:55:20.138Z,18.34
2023-05-13T08:57:48.003Z,18.51
2023-05-13T09:00:17.255Z,18.48
2023-05-13T09:02:46.184Z,18.96
2023-05-13T09:05:14.255Z,19.07
2023-05-13T09:07:43.370Z,18.40
2023-05-13T09:10:12.083Z,18.87
2023-05-13T09:12:47.157Z,18.94
2023-05-13T09:15:16.117Z,19.40
2023-05-13T09:17:45.441Z,19.54
2023-05-13T09:20:15.060Z,19.46
2023-05-13T09:22:46.274Z,19.03
2023-05-13T09:25:14.771Z,19.24
2023-05-13T09:27:45.300Z,19.51
2023-05-13T09:30:13.346Z,19.57
2023-05-13T09:32:42.756Z,20.05
2023-05-13T09:35:17.229Z,20.27
2023-05-13T09:37:49.656Z,19.50
2023-05-13T09:40:18.326Z,19.61
2023-05-13T09:42:47.105Z,19.77
2023-05-13T09:45:15.609Z,20.10
2023-05-13T09:47:44.488Z,19.83
2023-05-13T09:50:13.295Z,20.17
2023-05-13T09:52:41.033Z,20.22
2023-05-13T09:55:11.243Z,20.30
2023-05-13T09:57:40.870Z,20.06
2023-05-13T10:00:17.917Z,20.11
2023-05-13T10:02:53.023Z,20.37
2023-05-13T10:05:21.144Z,20.57
2023-05-13T10:07:48.842Z,20.65
2023-05-13T10:10:18.294Z,20.79
2023-05-13T10:12:46.061Z,20.81
2023-05-13T10:15:13.888Z,20.69
2023-05-13T10:17:42.714Z,21.04
2023-05-13T10:20:10.795Z,20.96
2023-05-13T10:22:38.603Z,21.17
2023-05-13T10:25:07.420Z,21.23
2023-05-13T10:27:36.428Z,21.09
2023-05-13T10:30:09.676Z,21.13
2023-05-13T10:32:39.130Z,21.14
2023-05-13T10:35:09.997Z,20.91
2023-05-13T10:38:00.330Z,20.53
2023-05-13T10:40:35.384Z,21.03
2023-05-13T10:43:14.904Z,21.03
2023-05-13T10:45:45.830Z,21.52
2023-05-13T10:48:14.654Z,21.34
2023-05-13T10:50:52.314Z,21.71
2023-05-13T10:53:23.339Z,21.77
2023-05-13T10:55:54.720Z,21.35
2023-05-13T10:58:29.698Z,21.21
2023-05-13T11:01:16.847Z,21.30
2023-05-13T11:03:52.925Z,21.49
2023-05-13T11:06:22.367Z,21.55
2023-05-13T11:08:52.149Z,21.26
2023-05-13T11:11:27.373Z,21.52
2023-05-13T11:13:57.742Z,21.91
2023-05-13T11:16:25.742Z,21.91
2023-05-13T11:18:53.934Z,21.88
2023-05-13T11:21:31.621Z,22.06
2023-05-13T11:24:00.423Z,22.26
2023-05-13T11:26:28.235Z,22.54
2023-05-13T11:28:59.423Z,22.41
2023-05-13T11:31:28.637Z,21.97
2023-05-13T11:34:13.884Z,22.22
2023-05-13T11:36:43.628Z,21.88
2023-05-13T11:39:13.807Z,21.55
2023-05-13T11:41:43.504Z,21.30
2023-05-13T11:44:14.423Z,21.52
2023-05-13T11:46:52.501Z,21.78
2023-05-13T11:49:39.408Z,21.70
2023-05-13T11:52:08.983Z,22.02
2023-05-13T11:54:44.133Z,21.86
2023-05-13T11:57:22.430Z,22.05
2023-05-13T11:59:56.482Z,21.91
2023-05-13T12:02:25.118Z,21.64
2023-05-13T12:04:53.364Z,22.20
2023-05-13T12:07:22.767Z,22.45
2023-05-13T12:09:50.616Z,23.09
2023-05-13T12:12:19.056Z,23.10
2023-05-13T12:14:49.995Z,23.04
2023-05-13T12:17:19.758Z,22.75
2023-05-13T12:20:06.785Z,23.27
2023-05-13T12:22:34.697Z,22.91
2023-05-13T12:25:06.116Z,22.80
2023-05-13T12:27:33.791Z,23.17
2023-05-13T12:30:01.552Z,23.32
2023-05-13T12:32:30.618Z,23.42
2023-05-13T12:34:58.531Z,23.47
2023-05-13T12:37:27.039Z,23.45
2023-05-13T12:40:12.517Z,23.26
2023-05-13T12:42:40.280Z,23.41
2023-05-13T12:45:08.945Z,23.15
2023-05-13T12:47:50.289Z,22.70
2023-05-13T12:50:18.046Z,22.19
2023-05-13T12:52:45.783Z,22.84
2023-05-13T12:55:14.102Z,23.67
2023-05-13T12:57:42.154Z,23.26
2023-05-13T13:00:11.131Z,22.65
2023-05-13T13:02:40.789Z,22.61
2023-05-13T13:05:10.532Z,23.23
2023-05-13T13:07:38.272Z,23.69
2023-05-13T13:10:07.197Z,23.51
2023-05-13T13:12:34.982Z,23.63
2023-05-13T13:15:02.872Z,24.09
2023-05-13T13:17:30.593Z,23.52
2023-05-13T13:19:58.290Z,23.15
2023-05-13T13:22:27.315Z,23.18
2023-05-13T13:24:54.952Z,23.34
2023-05-13T13:27:22.657Z,23.47
2023-05-13T13:29:50.363Z,23.43
2023-05-13T13:32:18.125Z,23.03
2023-05-13T13:34:45.939Z,23.20
2023-05-13T13:37:13.619Z,23.44
2023-05-13T13:39:42.685Z,23.28
2023-05-13T13:42:10.390Z,23.18
2023-05-13T13:44:39.493Z,24.30
2023-05-13T13:47:07.255Z,24.00
2023-05-13T13:49:35.027Z,24.65
2023-05-13T13:52:02.714Z,24.59
2023-05-13T13:54:30.379Z,23.96
2023-05-13T13:56:59.695Z,23.69
2023-05-13T13:59:27.439Z,23.52
2023-05-13T14:01:55.168Z,23.43
2023-05-13T14:04:26.133Z,23.46
2023-05-13T14:06:55.319Z,23.27
2023-05-13T14:09:23.259Z,23.38
2023-05-13T14:11:50.956Z,23.20
2023-05-13T14:14:19.990Z,22.86
2023-05-13T14:16:47.989Z,23.04
2023-05-13T14:19:18.023Z,23.09
2023-05-13T14:21:46.501Z,23.15
2023-05-13T14:24:14.172Z,23.10
2023-05-13T14:26:41.880Z,23.21
2023-05-13T14:29:09.564Z,23.44
2023-05-13T14:31:39.099Z,22.86
2023-05-13T14:34:08.082Z,22.50
2023-05-13T14:36:35.906Z,22.24
2023-05-13T14:39:03.567Z,22.36
2023-05-13T14:41:31.387Z,22.48
2023-05-13T14:44:00.166Z,22.99
2023-05-13T14:46:28.007Z,22.86
2023-05-13T14:48:57.096Z,22.89
2023-05-13T14:51:24.830Z,22.86
2023-05-13T14:53:52.486Z,22.85
2023-05-13T14:56:20.255Z,22.89
2023-05-13T14:58:47.999Z,22.79
2023-05-13T15:01:15.725Z,23.02
2023-05-13T15:03:43.518Z,22.56
2023-05-13T15:06:12.841Z,22.90
2023-05-13T15:08:40.648Z,23.00
2023-05-13T15:11:08.573Z,22.96
2023-05-13T15:13:37.253Z,22.91
2023-05-13T15:16:07.049Z,23.15
2023-05-13T15:18:35.335Z,22.88
2023-05-13T15:21:03.085Z,23.28
2023-05-13T15:23:32.150Z,23.06
2023-05-13T15:25:59.919Z,22.68
2023-05-13T15:28:29.078Z,22.71
2023-05-13T15:30:57.080Z,22.98
2023-05-13T15:33:26.664Z,23.02
2023-05-13T15:35:54.734Z,22.87
2023-05-13T15:38:22.526Z,23.23
2023-05-13T15:40:51.628Z,23.71
2023-05-13T15:43:19.445Z,23.57
2023-05-13T15:45:47.212Z,23.22
2023-05-13T15:48:14.947Z,23.60
2023-05-13T15:50:42.983Z,23.58
2023-05-13T15:53:10.813Z,23.07
2023-05-13T15:55:39.490Z,23.21
2023-05-13T15:58:08.532Z,22.86
2023-05-13T16:00:36.674Z,23.02
2023-05-13T16:03:04.501Z,23.25
2023-05-13T16:05:32.513Z,22.95
2023-05-13T16:08:00.218Z,23.44
2023-05-13T16:10:28.086Z,23.74
2023-05-13T16:12:55.847Z,23.61
2023-05-13T16:15:25.030Z,23.23
2023-05-13T16:17:52.781Z,23.33
2023-05-13T16:20:20.855Z,22.88
2023-05-13T16:22:48.770Z,22.90
2023-05-13T16:25:17.262Z,23.29
2023-05-13T16:27:44.957Z,23.45
2023-05-13T16:30:13.205Z,23.45
2023-05-13T16:32:42.788Z,23.38
2023-05-13T16:35:11.934Z,23.08
2023-05-13T16:37:39.667Z,23.21
2023-05-13T16:40:08.637Z,22.82
2023-05-13T16:42:36.350Z,22.72
2023-05-13T16:45:04.245Z,22.84
2023-05-13T16:47:31.947Z,22.28
2023-05-13T16:50:01.054Z,22.61
2023-05-13T16:52:31.283Z,22.85
2023-05-13T16:54:59.173Z,22.75
2023-05-13T16:57:27.114Z,22.60
2023-05-13T16:59:54.851Z,22.50
2023-05-13T17:02:22.645Z,22.52
2023-05-13T17:04:51.118Z,22.58
2023-05-13T17:07:20.246Z,22.50
2023-05-13T17:09:47.967Z,23.07
2023-05-13T17:12:16.642Z,23.28
2023-05-13T17:14:44.735Z,23.27
2023-05-13T17:17:12.558Z,22.68
2023-05-13T17:19:40.310Z,22.87
2023-05-13T17:22:07.999Z,22.70
2023-05-13T17:24:38.471Z,22.67
2023-05-13T17:27:06.548Z,22.25
2023-05-13T17:29:34.282Z,22.46
2023-05-13T17:32:01.925Z,22.67
2023-05-13T17:34:29.618Z,22.09
2023-05-13T17:36:57.283Z,22.21
2023-05-13T17:39:24.929Z,22.12
2023-05-13T17:41:54.153Z,22.37
2023-05-13T17:44:23.909Z,22.56
2023-05-13T17:46:51.721Z,22.23
2023-05-13T17:49:19.479Z,22.10
2023-05-13T17:51:47.212Z,22.18
2023-05-13T17:54:14.881Z,22.36
2023-05-13T17:56:42.548Z,22.31
2023-05-13T17:59:11.729Z,21.50
2023-05-13T18:01:39.502Z,22.09
2023-05-13T18:04:07.622Z,21.81
2023-05-13T18:06:35.283Z,22.21
2023-05-13T18:09:02.930Z,21.97
2023-05-13T18:11:30.708Z,22.30
2023-05-13T18:13:58.380Z,22.46
2023-05-13T18:16:27.561Z,22.37
2023-05-13T18:18:55.282Z,21.83
2023-05-13T18:21:24.196Z,21.61
2023-05-13T18:23:51.924Z,20.71
2023-05-13T18:26:19.853Z,20.65
2023-05-13T18:28:47.507Z,20.77
2023-05-13T18:31:15.328Z,20.95
2023-05-13T18:33:44.384Z,20.85
2023-05-13T18:36:12.125Z,20.77
2023-05-13T18:38:40.138Z,20.87
2023-05-13T18:41:07.810Z,20.82
2023-05-13T18:43:35.516Z,20.78
2023-05-13T18:46:03.299Z,20.66
2023-05-13T18:48:30.988Z,20.67
2023-05-13T18:51:00.022Z,20.69
2023-05-13T18:53:27.710Z,20.32
2023-05-13T18:55:55.812Z,20.38
2023-05-13T18:58:23.538Z,20.31
2023-05-13T19:00:51.648Z,20.34
2023-05-13T19:03:19.565Z,20.12
2023-05-13T19:05:47.289Z,19.89
2023-05-13T19:08:16.380Z,20.03
2023-05-13T19:10:44.012Z,19.95
2023-05-13T19:13:11.744Z,20.18
2023-05-13T19:15:39.416Z,19.92
2023-05-13T19:18:07.156Z,19.83
2023-05-13T19:20:34.932Z,19.86
2023-05-13T19:23:02.660Z,19.69
2023-05-13T19:25:31.809Z,19.60
2023-05-13T19:27:59.524Z,19.70
2023-05-13T19:30:27.162Z,19.88
2023-05-13T19:32:54.875Z,19.59
2023-05-13T19:35:23.464Z,19.68
2023-05-13T19:37:51.423Z,19.49
2023-05-13T19:40:19.236Z,19.44
2023-05-13T19:42:49.255Z,19.27
2023-05-13T19:45:19.297Z,19.20
2023-05-13T19:47:47.172Z,19.31
2023-05-13T19:50:14.909Z,19.36
2023-05-13T19:52:43.647Z,19.39
2023-05-13T19:55:11.692Z,19.23
2023-05-13T19:57:41.029Z,19.30
2023-05-13T20:00:12.085Z,19.22
2023-05-13T20:02:40.121Z,18.99
2023-05-13T20:05:09.306Z,19.11
2023-05-13T20:07:36.972Z,19.05
2023-05-13T20:10:05.217Z,18.89
2023-05-13T20:12:33.061Z,18.84
2023-05-13T20:15:01.210Z,18.68
2023-05-13T20:17:31.282Z,18.57
2023-05-13T20:19:59.044Z,18.45
2023-05-13T20:22:26.710Z,18.45
2023-05-13T20:24:54.501Z,18.33
2023-05-13T20:27:22.161Z,18.32
2023-05-13T20:29:50.966Z,18.16
2023-05-13T20:32:21.220Z,18.16
2023-05-13T20:34:50.928Z,17.90
2023-05-13T20:37:20.054Z,17.79
2023-05-13T20:39:48.918Z,17.64
2023-05-13T20:42:16.641Z,17.76
2023-05-13T20:44:45.830Z,17.48
2023-05-13T20:47:14.295Z,17.38
2023-05-13T20:49:43.869Z,17.14
2023-05-13T20:52:13.026Z,17.07
2023-05-13T20:54:40.778Z,16.78
2023-05-13T20:57:08.492Z,16.71
2023-05-13T20:59:36.167Z,16.91
2023-05-13T21:02:03.885Z,16.73
2023-05-13T21:04:31.570Z,16.62
2023-05-13T21:06:59.353Z,16.33
2023-05-13T21:09:28.423Z,16.25
2023-05-13T21:11:56.140Z,16.06
2023-05-13T21:14:23.813Z,16.08
2023-05-13T21:16:51.498Z,16.07
2023-05-13T21:19:20.778Z,16.10
2023-05-13T21:21:48.530Z,15.78
2023-05-13T21:24:18.676Z,15.80
2023-05-13T21:26:49.159Z,16.00
2023-05-13T21:29:18.895Z,15.35
2023-05-13T21:31:47.577Z,15.28
2023-05-13T21:34:15.350Z,15.46
2023-05-13T21:36:42.984Z,15.28
2023-05-13T21:39:11.159Z,15.20
2023-05-13T21:41:39.958Z,15.14
2023-05-13T21:44:09.037Z,15.21
2023-05-13T21:46:36.839Z,15.13
2023-05-13T21:49:04.670Z,15.23
2023-05-13T21:51:32.540Z,15.00
2023-05-13T21:54:00.486Z,15.00
2023-05-13T21:56:28.147Z,15.07
2023-05-13T21:58:55.874Z,15.09
2023-05-13T22:01:24.977Z,15.03
2023-05-13T22:03:52.670Z,15.07
2023-05-13T22:06:20.364Z,14.68
2023-05-13T22:08:48.107Z,14.65
2023-05-13T22:11:15.926Z,14.83
2023-05-13T22:13:43.573Z,14.84
2023-05-13T22:16:11.836Z,14.71
2023-05-13T22:18:41.811Z,14.65
2023-05-13T22:21:09.721Z,14.59
2023-05-13T22:23:37.472Z,14.64
2023-05-13T22:26:05.373Z,14.44
2023-05-13T22:28:33.033Z,14.43
2023-05-13T22:31:00.705Z,14.31
2023-05-13T22:33:28.439Z,14.22
2023-05-13T22:35:57.639Z,14.28
2023-05-13T22:38:25.285Z,14.18
2023-05-13T22:40:52.961Z,14.07
2023-05-13T22:43:20.885Z,13.84
2023-05-13T22:45:48.620Z,14.21
2023-05-13T22:48:16.335Z,14.05
2023-05-13T22:50:44.068Z,14.05
2023-05-13T22:53:13.151Z,13.82
2023-05-13T22:55:40.878Z,13.83
2023-05-13T22:58:09.086Z,13.82
2023-05-13T23:00:36.745Z,13.91
2023-05-13T23:03:04.568Z,13.69
2023-05-13T23:05:32.309Z,13.72
2023-05-13T23:07:59.964Z,13.57
2023-05-13T23:10:29.926Z,13.29
2023-05-13T23:12:57.629Z,13.44
2023-05-13T23:15:25.548Z,13.44
2023-05-13T23:17:53.236Z,13.61
2023-05-13T23:20:21.508Z,13.54
2023-05-13T23:22:49.283Z,13.34
2023-05-13T23:25:17.151Z,13.42
2023-05-13T23:27:46.267Z,13.12
2023-05-13T23:30:14.834Z,13.19
2023-05-13T23:32:42.533Z,13.19
2023-05-13T23:35:10.765Z,13.12
2023-05-13T23:37:38.496Z,13.09
2023-05-13T23:40:07.840Z,13.28
2023-05-13T23:42:36.043Z,13.20
2023-05-13T23:45:05.778Z,13.26
2023-05-13T23:47:33.540Z,13.28
2023-05-13T23:50:02.199Z,12.92
2023-05-13T23:52:29.892Z,12.85
2023-05-13T23:54:57.557Z,13.00
2023-05-13T23:57:25.298Z,13.11
2023-05-13T23:59:53.005Z,12.90
